Terminal Aerodrome Forecast
Issued by NWS

Current Version | Previous Version | Graphics & Text | Print | Product List | Glossary On
Versions: 1 2 3 4 5 6 7 8 9 10 11 12 13 14 15 16 17 18 19 20 21 22 23 24 25 26
007
FTUS41 KILN 022105 AAA
TAFLUK
TAF AMD
KLUK 022105Z 0221/0318 29008KT P6SM SCT035 BKN110
     FM030100 33006KT P6SM SCT028 OVC050
     FM030600 36003KT 4SM BR SCT015 OVC028
     FM030900 36005KT 4SM BR BKN015 OVC028
     FM031400 35006KT P6SM SCT015 OVC028=

USA.gov is the U.S. government's official web portal to all federal, state and local government web resources and services.